Time;durP1;ratioP1;P1;durP2;ratioP2;P2;SDS_P1;SDS_P2;PMS_P1;PMS_P2;Temp;Humidity;BMP_temperature;BMP_pressure;BME280_temperature;BME280_humidity;BME280_pressure;Samples;Min_cycle;Max_cycle;Signal;HPM_P1;HPM_P2
2022/11/11 00:01:21;;;;;;;108.82;58.50;;;;;;;8.69;72.08;96399.13;5072176;28;20033;-77
2022/11/11 00:03:47;;;;;;;113.88;57.55;;;;;;;8.72;71.98;96403.94;5086448;28;20182;-77
2022/11/11 00:06:15;;;;;;;115.25;59.17;;;;;;;8.25;72.24;96330.94;5069300;28;20029;-77
2022/11/11 00:08:41;;;;;;;120.30;58.67;;;;;;;8.74;71.67;96396.59;5052084;28;20039;-77
2022/11/11 00:11:09;;;;;;;110.53;56.72;;;;;;;8.69;72.54;96388.56;5069290;28;20036;-77
2022/11/11 00:13:37;;;;;;;108.57;56.08;;;;;;;8.61;72.51;96380.16;5069927;28;20043;-78
2022/11/11 00:16:08;;;;;;;106.10;56.45;;;;;;;8.75;72.16;96398.19;5069972;28;20430;-77
2022/11/11 00:26:47;;;;;;;112.00;55.22;;;;;;;8.48;72.52;96376.72;5070286;28;20048;-76
2022/11/11 00:29:12;;;;;;;112.70;56.22;;;;;;;8.38;72.33;96351.91;5051771;28;20024;-76
2022/11/11 00:32:21;;;;;;;102.25;53.40;;;;;;;8.58;72.79;96394.66;5051990;28;20040;-76
2022/11/11 00:34:23;;;;;;;109.43;55.55;;;;;;;8.40;72.89;96363.84;5069670;28;20407;-76
2022/11/11 00:36:49;;;;;;;105.22;54.50;;;;;;;8.33;72.44;96349.13;5069758;28;20044;-76
2022/11/11 00:39:14;;;;;;;107.43;53.90;;;;;;;8.35;72.65;96349.72;5070022;28;20091;-76
2022/11/11 00:41:39;;;;;;;115.80;55.45;;;;;;;8.59;72.57;96383.03;5069516;28;20055;-76
2022/11/11 00:44:05;;;;;;;102.80;53.35;;;;;;;8.36;72.35;96335.47;5051574;28;20040;-76
2022/11/11 00:51:58;;;;;;;95.93;51.92;;;;;;;8.42;72.26;96345.91;5068861;28;20476;-76
2022/11/11 00:54:23;;;;;;;107.05;53.17;;;;;;;8.35;72.00;96332.03;5078840;28;20135;-76
2022/11/11 00:56:49;;;;;;;111.00;55.05;;;;;;;8.27;72.19;96318.31;5069428;28;20049;-76
2022/11/11 00:59:14;;;;;;;105.07;56.00;;;;;;;8.75;72.67;96390.28;5069481;28;20044;-76
2022/11/11 01:01:40;;;;;;;108.72;53.20;;;;;;;8.79;72.12;96385.31;5055442;28;20583;-76
2022/11/11 01:04:05;;;;;;;105.63;52.63;;;;;;;8.82;71.99;96395.44;5084674;28;20044;-76
2022/11/11 01:06:30;;;;;;;106.85;54.55;;;;;;;8.67;71.92;96387.97;5084382;28;20039;-77
2022/11/11 01:08:56;;;;;;;106.07;54.40;;;;;;;8.79;72.08;96393.25;5078580;28;20121;-77
2022/11/11 01:11:23;;;;;;;111.05;55.70;;;;;;;8.54;72.23;96351.22;5073368;28;20159;-76
2022/11/11 01:13:49;;;;;;;112.55;55.30;;;;;;;8.79;71.96;96390.59;5073507;28;20418;-76
2022/11/11 01:16:19;;;;;;;111.50;54.95;;;;;;;8.65;71.75;96357.50;5055184;28;20090;-76
2022/11/11 01:18:44;;;;;;;103.63;51.85;;;;;;;8.78;72.01;96387.13;5073091;28;20473;-76
2022/11/11 01:21:11;;;;;;;104.13;55.28;;;;;;;8.78;71.94;96383.69;5055468;28;20036;-76
2022/11/11 01:23:38;;;;;;;103.03;54.13;;;;;;;8.75;72.14;96378.88;5073299;28;20570;-76
2022/11/11 01:26:05;;;;;;;113.00;55.40;;;;;;;8.38;71.78;96339.50;5065234;28;20047;-76
2022/11/11 01:28:32;;;;;;;102.35;53.60;;;;;;;8.29;71.73;96318.91;5055659;28;20029;-76
2022/11/11 01:31:03;;;;;;;107.28;55.78;;;;;;;8.60;71.53;96362.69;5055215;28;20044;-76
2022/11/11 01:33:29;;;;;;;102.15;52.90;;;;;;;8.24;71.81;96318.78;5072845;28;20037;-76
2022/11/11 01:35:54;;;;;;;104.45;53.65;;;;;;;8.74;71.49;96385.19;5073402;28;20172;-76
2022/11/11 01:38:20;;;;;;;104.45;53.83;;;;;;;8.25;71.71;96307.16;5055080;28;20071;-76
2022/11/11 01:40:47;;;;;;;111.55;58.30;;;;;;;8.63;71.97;96381.53;5073115;28;20417;-76
2022/11/11 01:43:20;;;;;;;117.35;59.47;;;;;;;8.25;72.40;96307.16;5085045;28;20036;-76
2022/11/11 01:45:47;;;;;;;111.90;57.53;;;;;;;8.66;72.02;96382.91;5088351;28;20040;-76
2022/11/11 01:51:57;;;;;;;112.65;54.47;;;;;;;8.66;71.69;96393.50;5079892;28;20511;-76
2022/11/11 01:54:32;;;;;;;108.85;55.53;;;;;;;8.51;71.56;96364.88;4980769;28;20128;-76
2022/11/11 01:57:05;;;;;;;107.93;57.20;;;;;;;7.98;71.97;96283.06;5002504;28;20150;-76
2022/11/11 01:59:34;;;;;;;110.20;57.03;;;;;;;8.26;71.48;96328.06;5030374;28;20052;-76
2022/11/11 02:02:05;;;;;;;115.07;58.55;;;;;;;8.50;72.00;96365.91;5054123;28;20308;-76
2022/11/11 02:07:17;;;;;;;123.75;60.50;;;;;;;7.49;71.45;96221.72;5072599;28;20047;-76
2022/11/11 02:09:45;;;;;;;112.35;58.97;;;;;;;8.47;71.76;96398.88;5072386;28;20778;-76
2022/11/11 02:14:58;;;;;;;116.85;59.50;;;;;;;7.40;71.64;96228.34;5078173;28;20071;-78
2022/11/11 02:17:26;;;;;;;111.07;56.25;;;;;;;8.32;71.86;96400.38;5057424;28;20064;-78
2022/11/11 02:19:58;;;;;;;114.70;58.10;;;;;;;8.32;72.00;96387.16;5051549;28;20037;-78
2022/11/11 02:22:46;;;;;;;101.28;53.92;;;;;;;8.15;72.85;96368.53;5056564;28;20079;-76
2022/11/11 02:25:16;;;;;;;102.22;52.70;;;;;;;8.40;72.25;96394.75;5045956;28;20388;-76
2022/11/11 02:27:46;;;;;;;102.13;52.38;;;;;;;8.26;72.51;96366.91;5072390;28;20045;-76
2022/11/11 02:30:14;;;;;;;107.22;53.15;;;;;;;8.46;73.44;96392.03;5057591;28;20441;-76
2022/11/11 02:32:45;;;;;;;109.20;53.03;;;;;;;8.38;72.81;96395.00;5045223;28;20044;-76
2022/11/11 02:35:32;;;;;;;110.30;52.75;;;;;;;8.47;73.17;96401.53;5064937;28;20037;-76
2022/11/11 02:37:58;;;;;;;104.30;53.25;;;;;;;7.59;72.12;96272.13;5077047;28;20486;-76
2022/11/11 02:40:36;;;;;;;109.47;54.00;;;;;;;8.26;71.72;96402.06;5079299;28;20111;-77
2022/11/11 02:43:02;;;;;;;106.07;54.95;;;;;;;7.90;72.21;96352.88;5077728;28;20127;-76
2022/11/11 02:45:27;;;;;;;111.25;54.83;;;;;;;7.93;72.02;96351.63;5066251;28;20111;-76
2022/11/11 02:47:53;;;;;;;110.38;54.05;;;;;;;7.82;71.08;96316.25;5071748;28;20024;-76
2022/11/11 02:50:18;;;;;;;111.32;53.05;;;;;;;7.65;71.28;96294.16;5053967;28;20039;-76
2022/11/11 02:52:44;;;;;;;102.82;52.10;;;;;;;7.82;71.37;96313.59;5053850;28;20059;-76
2022/11/11 02:55:10;;;;;;;115.00;56.30;;;;;;;8.35;71.26;96403.38;5078852;28;20247;-76
2022/11/11 02:57:36;;;;;;;114.80;54.63;;;;;;;7.66;71.76;96322.19;5080098;28;20040;-76
2022/11/11 03:00:02;;;;;;;109.80;54.22;;;;;;;8.23;71.30;96404.38;5081096;28;20036;-76
2022/11/11 03:02:28;;;;;;;107.88;52.55;;;;;;;7.65;71.39;96312.66;5058908;28;20533;-76
2022/11/11 03:04:54;;;;;;;104.47;52.28;;;;;;;8.08;71.57;96397.72;5083606;28;20040;-76
2022/11/11 03:07:21;;;;;;;100.63;51.90;;;;;;;7.97;71.66;96381.81;5075065;28;20048;-75
2022/11/11 03:09:46;;;;;;;104.15;51.50;;;;;;;7.64;71.66;96340.06;5053078;28;20035;-76
2022/11/11 03:12:12;;;;;;;96.78;51.60;;;;;;;7.81;71.29;96358.72;5071666;28;20427;-75
2022/11/11 03:14:37;;;;;;;101.05;53.13;;;;;;;8.19;71.43;96416.44;5053447;28;20041;-76
2022/11/11 03:19:47;;;;;;;103.53;56.15;;;;;;;7.88;70.96;96359.41;5071278;28;20040;-76
2022/11/11 03:22:13;;;;;;;106.68;54.70;;;;;;;8.04;70.93;96385.16;5071478;28;20052;-76
2022/11/11 03:27:22;;;;;;;115.60;56.70;;;;;;;7.75;71.61;96348.03;5071428;28;20477;-76
2022/11/11 03:29:47;;;;;;;105.57;56.47;;;;;;;8.16;71.24;96407.16;5053143;28;20037;-76
2022/11/11 03:32:13;;;;;;;109.90;54.85;;;;;;;7.95;71.97;96379.41;5071203;28;20047;-76
2022/11/11 03:34:38;;;;;;;99.13;52.83;;;;;;;7.73;71.83;96338.72;5053181;28;20042;-76
2022/11/11 03:39:50;;;;;;;97.45;51.30;;;;;;;8.14;72.73;96401.28;5071033;28;20102;-76
2022/11/11 03:42:15;;;;;;;111.40;53.63;;;;;;;7.48;72.60;96291.38;5052577;28;20044;-76
2022/11/11 03:44:40;;;;;;;102.63;53.05;;;;;;;8.23;72.37;96402.56;5052975;28;20092;-77
2022/11/11 03:47:06;;;;;;;99.72;53.45;;;;;;;8.07;72.39;96374.16;5070795;28;20037;-77
2022/11/11 03:49:31;;;;;;;105.10;51.92;;;;;;;7.56;73.39;96329.84;5070991;28;20040;-77
2022/11/11 03:51:57;;;;;;;95.00;51.45;;;;;;;7.96;73.83;96382.84;5070708;28;20056;-77
2022/11/11 03:54:22;;;;;;;102.60;52.67;;;;;;;7.84;73.33;96347.72;5070926;28;20041;-76
2022/11/11 03:56:47;;;;;;;108.80;53.95;;;;;;;7.83;73.44;96325.78;5070530;28;20526;-76
2022/11/11 03:59:13;;;;;;;98.60;53.05;;;;;;;8.01;73.07;96356.59;5052525;28;20147;-76
2022/11/11 04:18:07;;;;;;;113.28;57.78;;;;;;;8.12;73.18;96343.38;5070507;28;20128;-77
2022/11/11 04:23:16;;;;;;;102.15;53.80;;;;;;;8.39;75.16;96372.81;5070522;28;20066;-77
2022/11/11 04:25:48;;;;;;;105.03;53.13;;;;;;;8.27;74.00;96334.97;5070392;28;20494;-77
2022/11/11 04:30:58;;;;;;;104.18;50.47;;;;;;;8.40;75.42;96357.75;5060988;28;20066;-77
2022/11/11 04:33:23;;;;;;;97.30;49.58;;;;;;;8.72;76.80;96409.22;5069912;28;20321;-77
2022/11/11 04:35:49;;;;;;;103.18;51.03;;;;;;;8.72;77.20;96413.72;5070251;28;20037;-77
2022/11/11 04:41:05;;;;;;;92.63;50.00;;;;;;;7.98;77.75;96315.56;5070159;28;20140;-76
2022/11/11 04:45:26;;;;;;;96.97;50.83;;;;;;;8.05;76.62;96313.63;5051824;28;20041;-77
2022/11/11 04:46:17;;;;;;;93.35;49.20;;;;;;;7.99;79.96;96317.19;5069554;28;20032;-76
2022/11/11 04:48:42;;;;;;;91.78;48.65;;;;;;;8.46;82.70;96378.81;5051623;28;20044;-77
2022/11/11 04:51:08;;;;;;;99.07;51.80;;;;;;;8.29;85.04;96326.81;5069889;28;20041;-77
2022/11/11 04:53:33;;;;;;;98.88;50.45;;;;;;;8.71;85.46;96375.88;5051716;28;20056;-77
2022/11/11 04:58:42;;;;;;;83.20;43.33;;;;;;;8.85;86.27;96371.94;5061180;28;20217;-77
2022/11/11 05:01:08;;;;;;;87.97;46.65;;;;;;;8.79;85.83;96356.22;5069217;28;20537;-77
2022/11/11 05:03:33;;;;;;;85.18;44.97;;;;;;;9.09;86.23;96382.47;5069524;28;20047;-77
2022/11/11 05:08:56;;;;;;;83.95;44.85;;;;;;;9.43;84.83;96415.19;5032313;28;20052;-77
2022/11/11 05:11:26;;;;;;;79.28;43.17;;;;;;;9.50;85.48;96423.78;5067364;28;20037;-77
2022/11/11 05:22:15;;;;;;;71.07;39.85;;;;;;;9.59;84.13;96425.84;5042454;28;20060;-77
2022/11/11 05:27:25;;;;;;;72.53;37.45;;;;;;;9.60;84.06;96431.94;5027015;28;20044;-77
2022/11/11 05:29:51;;;;;;;70.38;39.17;;;;;;;9.60;83.93;96437.22;5011155;28;20415;-77
2022/11/11 05:32:17;;;;;;;63.88;34.65;;;;;;;9.62;83.47;96441.25;5015443;28;20041;-77
2022/11/11 05:34:43;;;;;;;64.47;35.88;;;;;;;9.64;82.95;96433.06;5040511;28;20939;-78
2022/11/11 05:37:09;;;;;;;70.38;35.33;;;;;;;9.23;83.77;96397.84;5040191;28;20101;-77
2022/11/11 05:39:35;;;;;;;64.93;35.13;;;;;;;9.12;83.63;96382.81;5034789;28;20049;-78
2022/11/11 05:42:00;;;;;;;62.67;34.03;;;;;;;9.59;83.22;96449.66;5035225;28;20041;-78
2022/11/11 05:44:26;;;;;;;61.80;33.72;;;;;;;9.56;83.65;96451.97;5037625;28;20041;-78
2022/11/11 05:46:51;;;;;;;57.97;32.65;;;;;;;9.04;83.53;96383.19;5034837;28;20093;-78
2022/11/11 05:49:17;;;;;;;85.03;41.47;;;;;;;8.89;82.63;96370.47;5019368;28;20750;-78
2022/11/11 05:51:43;;;;;;;73.47;38.25;;;;;;;9.23;81.71;96428.84;5047617;28;20139;-78
2022/11/11 05:54:09;;;;;;;73.93;40.88;;;;;;;9.26;81.90;96437.09;5054404;28;20402;-78
2022/11/11 05:56:34;;;;;;;82.35;44.47;;;;;;;9.21;81.11;96417.66;5077135;28;20048;-78
2022/11/11 05:59:00;;;;;;;77.65;42.40;;;;;;;9.28;80.34;96428.94;5071553;28;20791;-79
2022/11/11 06:01:25;;;;;;;75.88;41.50;;;;;;;9.45;79.83;96461.59;5064574;28;20043;-79
2022/11/11 06:03:51;;;;;;;76.10;39.55;;;;;;;9.34;79.74;96478.28;5056627;28;20040;-78
2022/11/11 06:06:16;;;;;;;81.53;43.42;;;;;;;9.04;79.80;96430.81;5074847;28;20465;-79
2022/11/11 06:08:42;;;;;;;79.53;41.28;;;;;;;9.18;79.52;96447.25;5074738;28;20032;-81
2022/11/11 06:11:07;;;;;;;72.97;39.13;;;;;;;9.29;79.61;96462.31;5057273;28;20044;-80
2022/11/11 06:13:33;;;;;;;63.03;34.30;;;;;;;8.77;80.60;96385.53;5053240;28;20031;-79
2022/11/11 06:15:59;;;;;;;70.18;35.85;;;;;;;9.04;81.21;96433.47;5048274;28;20047;-77
2022/11/11 06:18:24;;;;;;;52.95;31.52;;;;;;;9.04;82.14;96427.38;5044014;28;20041;-77
2022/11/11 06:20:54;;;;;;;56.20;29.90;;;;;;;8.80;82.21;96392.22;5058994;28;20504;-79
2022/11/11 06:23:20;;;;;;;58.00;32.22;;;;;;;9.43;82.34;96479.53;5066851;28;20101;-79
2022/11/11 06:28:29;;;;;;;63.50;33.45;;;;;;;9.45;82.22;96489.91;5062194;28;20508;-80
2022/11/11 06:30:55;;;;;;;61.90;31.98;;;;;;;8.92;82.11;96400.94;5065512;28;20048;-78
2022/11/11 06:33:20;;;;;;;65.70;32.53;;;;;;;9.12;82.45;96453.47;5048395;28;20076;-78
2022/11/11 06:35:47;;;;;;;59.97;32.20;;;;;;;9.65;81.96;96527.38;5048295;28;20481;-78
2022/11/11 06:38:13;;;;;;;57.92;31.40;;;;;;;9.53;82.52;96502.78;5062884;28;20040;-77
2022/11/11 06:40:39;;;;;;;58.40;29.85;;;;;;;8.36;81.53;96319.59;5069236;28;20048;-77
2022/11/11 06:43:04;;;;;;;60.90;30.40;;;;;;;9.50;82.39;96512.00;5063721;28;20044;-76
2022/11/11 06:45:32;;;;;;;55.20;29.55;;;;;;;8.85;82.34;96410.81;5072303;28;20044;-79
2022/11/11 06:47:58;;;;;;;56.65;30.00;;;;;;;9.03;82.28;96446.94;5048395;28;20448;-79
2022/11/11 06:50:23;;;;;;;61.03;29.67;;;;;;;8.91;82.18;96412.56;5073752;28;20082;-79
2022/11/11 06:52:48;;;;;;;54.45;30.20;;;;;;;9.66;82.73;96529.81;5050100;28;20619;-78
2022/11/11 06:55:14;;;;;;;58.55;30.75;;;;;;;9.31;82.82;96477.97;5069107;28;20068;-78
2022/11/11 06:57:39;;;;;;;60.95;31.50;;;;;;;9.64;83.29;96526.56;5066549;28;20040;-78
2022/11/11 07:00:06;;;;;;;52.80;30.20;;;;;;;9.70;83.02;96530.13;5048575;28;20040;-77
2022/11/11 07:02:32;;;;;;;58.58;30.13;;;;;;;8.89;83.64;96396.91;5051631;28;20613;-76
2022/11/11 07:04:58;;;;;;;63.55;32.50;;;;;;;9.21;83.48;96458.19;5034836;28;20056;-78
2022/11/11 07:07:24;;;;;;;63.83;32.58;;;;;;;9.32;83.32;96476.91;5053326;28;20052;-76
2022/11/11 07:09:50;;;;;;;60.92;30.38;;;;;;;8.99;83.91;96432.56;5056286;28;20036;-78
2022/11/11 07:12:16;;;;;;;57.60;30.75;;;;;;;9.67;83.68;96539.34;5032703;28;20142;-76
2022/11/11 07:14:42;;;;;;;60.33;32.25;;;;;;;9.57;83.98;96527.75;5032213;28;20616;-77
2022/11/11 07:17:07;;;;;;;57.97;30.75;;;;;;;9.04;84.36;96445.91;5057656;28;20043;-77
2022/11/11 07:19:33;;;;;;;59.10;31.75;;;;;;;8.76;84.15;96428.91;5035570;28;20032;-77
2022/11/11 07:21:58;;;;;;;63.80;32.67;;;;;;;9.24;84.51;96518.59;5053079;28;20048;-77
2022/11/11 07:24:24;;;;;;;55.05;30.83;;;;;;;8.98;84.84;96479.38;5061497;28;20376;-77
2022/11/11 07:26:50;;;;;;;67.13;31.23;;;;;;;9.09;84.53;96489.13;5068306;28;20036;-77
2022/11/11 07:29:15;;;;;;;66.25;32.13;;;;;;;9.22;84.60;96517.22;5052097;28;20040;-77
2022/11/11 07:31:41;;;;;;;56.00;30.17;;;;;;;9.50;84.44;96551.72;5051716;28;20055;-76
2022/11/11 07:34:07;;;;;;;61.22;31.67;;;;;;;9.61;83.85;96561.47;5059387;28;20620;-77
2022/11/11 07:36:33;;;;;;;61.03;30.92;;;;;;;9.38;83.54;96539.53;5053762;28;20483;-77
2022/11/11 07:38:59;;;;;;;60.30;30.05;;;;;;;8.72;83.56;96437.53;5067182;28;20109;-77
2022/11/11 07:41:24;;;;;;;66.00;31.73;;;;;;;9.12;83.89;96504.56;5050472;28;20040;-77
2022/11/11 07:43:49;;;;;;;70.18;32.28;;;;;;;9.49;84.02;96571.28;5062462;28;20033;-77
2022/11/11 07:46:15;;;;;;;67.20;32.58;;;;;;;9.54;83.97;96575.88;5064356;28;20656;-78
2022/11/11 07:48:41;;;;;;;61.83;31.08;;;;;;;9.48;84.20;96555.63;5049636;28;20063;-77
2022/11/11 07:51:06;;;;;;;55.42;29.45;;;;;;;9.10;83.14;96493.41;5042346;28;20040;-77
2022/11/11 07:53:32;;;;;;;61.08;28.77;;;;;;;9.61;82.75;96579.22;5037471;28;20048;-81
2022/11/11 07:55:57;;;;;;;58.55;29.42;;;;;;;9.38;82.85;96543.00;5044975;28;20039;-81
2022/11/11 07:58:23;;;;;;;61.60;29.92;;;;;;;9.64;82.88;96579.53;5036548;28;20095;-80
2022/11/11 08:00:48;;;;;;;55.63;26.85;;;;;;;9.49;82.23;96567.81;5060694;28;20067;-79
2022/11/11 08:03:14;;;;;;;55.88;28.23;;;;;;;8.43;82.66;96412.81;5061076;28;20592;-79
2022/11/11 08:05:39;;;;;;;59.83;27.98;;;;;;;9.20;82.73;96541.28;5058241;28;20043;-76
2022/11/11 08:08:06;;;;;;;55.42;29.58;;;;;;;9.18;82.21;96542.53;5060165;28;20040;-78
2022/11/11 08:10:32;;;;;;;55.42;26.58;;;;;;;9.47;82.71;96585.78;5020425;28;20457;-79
2022/11/11 08:15:42;;;;;;;58.05;28.52;;;;;;;9.54;82.95;96586.47;5052883;28;20121;-78
2022/11/11 08:18:08;;;;;;;46.65;25.88;;;;;;;9.50;82.07;96586.13;5040974;28;20041;-78
2022/11/11 08:20:34;;;;;;;59.88;27.23;;;;;;;9.35;81.78;96561.16;5061035;28;20106;-77
2022/11/11 08:23:02;;;;;;;48.05;25.90;;;;;;;9.33;81.95;96560.59;5057747;28;20537;-78
2022/11/11 08:25:29;;;;;;;49.58;25.27;;;;;;;9.62;82.06;96613.41;5044889;28;20805;-78
2022/11/11 08:28:03;;;;;;;58.13;27.70;;;;;;;9.55;81.52;96569.53;5062758;28;20120;-79
2022/11/11 08:30:30;;;;;;;50.55;26.95;;;;;;;9.79;81.19;96589.66;5058861;28;20056;-78
2022/11/11 08:33:03;;;;;;;53.80;27.70;;;;;;;9.61;80.37;96550.09;5053809;28;20119;-78
2022/11/11 08:35:29;;;;;;;50.75;25.15;;;;;;;9.51;80.85;96524.19;5037829;28;20040;-77
2022/11/11 08:37:55;;;;;;;48.10;25.45;;;;;;;9.57;80.03;96517.97;5047490;28;20040;-77
2022/11/11 08:40:21;;;;;;;47.08;25.00;;;;;;;10.15;79.26;96593.81;5057359;28;20650;-78
2022/11/11 08:42:47;;;;;;;51.08;26.35;;;;;;;10.16;79.02;96600.72;5047904;28;20197;-78
2022/11/11 08:45:12;;;;;;;45.90;23.02;;;;;;;10.23;79.35;96595.31;5040512;28;20044;-78
2022/11/11 08:47:38;;;;;;;42.97;24.00;;;;;;;10.30;78.21;96590.66;5060689;28;20051;-78
2022/11/11 08:50:05;;;;;;;45.47;23.38;;;;;;;10.15;77.99;96575.25;5061909;28;20044;-78
2022/11/11 08:52:31;;;;;;;40.00;21.60;;;;;;;9.97;77.65;96552.41;5057199;28;20056;-77
2022/11/11 08:54:58;;;;;;;50.92;23.40;;;;;;;9.57;77.63;96480.06;5032615;28;20045;-79
2022/11/11 08:57:23;;;;;;;42.53;23.38;;;;;;;9.68;77.64;96473.94;5036910;28;20686;-78
2022/11/11 08:59:48;;;;;;;40.08;21.85;;;;;;;9.38;76.97;96447.69;5034141;28;20040;-80
2022/11/11 09:02:14;;;;;;;40.17;22.15;;;;;;;10.31;77.41;96571.88;5031937;28;20071;-79
2022/11/11 09:04:40;;;;;;;41.03;21.38;;;;;;;10.27;76.47;96543.44;5028798;28;20051;-79
2022/11/11 09:07:08;;;;;;;42.38;20.52;;;;;;;10.06;75.84;96508.59;5065275;28;20470;-80
2022/11/11 09:09:34;;;;;;;40.92;21.90;;;;;;;10.63;76.05;96582.78;5068235;28;20093;-79
2022/11/11 09:11:59;;;;;;;38.75;21.13;;;;;;;10.57;76.00;96565.19;5039366;28;20036;-78
2022/11/11 09:14:24;;;;;;;40.17;20.30;;;;;;;10.08;75.63;96501.19;5043020;28;20124;-77
2022/11/11 09:16:50;;;;;;;36.78;19.05;;;;;;;10.64;75.39;96589.72;5060299;28;20040;-78
2022/11/11 09:19:15;;;;;;;34.97;19.38;;;;;;;10.40;74.96;96545.78;5057472;28;20091;-78
2022/11/11 09:21:41;;;;;;;36.40;20.38;;;;;;;10.15;75.42;96495.72;5045229;28;20144;-78
2022/11/11 09:24:06;;;;;;;40.97;18.77;;;;;;;10.64;74.66;96563.19;5063938;28;20044;-77
2022/11/11 09:26:32;;;;;;;31.85;18.10;;;;;;;10.83;73.94;96606.22;5042625;28;20040;-77
2022/11/11 09:28:57;;;;;;;40.30;20.60;;;;;;;10.80;74.09;96578.31;5062449;28;20040;-77
2022/11/11 09:31:24;;;;;;;30.80;17.52;;;;;;;10.59;73.02;96544.53;5050034;28;20040;-79
2022/11/11 09:33:50;;;;;;;23.48;14.65;;;;;;;10.93;72.17;96585.16;5070713;28;20059;-79
2022/11/11 09:36:15;;;;;;;27.95;15.85;;;;;;;10.39;72.34;96497.25;5055430;28;20134;-79
2022/11/11 09:38:41;;;;;;;28.13;15.63;;;;;;;10.68;72.39;96539.63;5047684;28;20051;-78
2022/11/11 09:41:58;;;;;;;29.95;16.45;;;;;;;11.00;72.36;96580.47;5073873;28;20032;-82
2022/11/11 09:44:29;;;;;;;21.42;13.23;;;;;;;10.99;71.35;96583.38;4975647;28;20558;-76
2022/11/11 09:47:07;;;;;;;25.23;14.15;;;;;;;10.92;71.30;96572.09;5061673;28;20055;-78
2022/11/11 09:50:22;;;;;;;23.33;13.32;;;;;;;11.01;70.99;96582.09;5068761;28;20028;-83
2022/11/11 09:53:00;;;;;;;26.48;13.80;;;;;;;10.68;71.32;96526.38;5027272;28;20470;-79
2022/11/11 09:55:48;;;;;;;23.40;13.57;;;;;;;10.49;71.14;96479.88;5068926;28;20040;-78
2022/11/11 09:58:25;;;;;;;26.75;15.90;;;;;;;11.02;71.40;96570.44;5048545;28;20734;-78
2022/11/11 10:01:00;;;;;;;29.17;14.45;;;;;;;10.75;71.27;96506.59;5048548;28;20055;-77
2022/11/11 10:03:29;;;;;;;24.40;14.18;;;;;;;10.68;70.39;96487.34;5061574;28;20040;-77
2022/11/11 10:06:27;;;;;;;23.70;15.45;;;;;;;10.87;70.31;96514.47;5072945;28;20804;-78
2022/11/11 10:09:10;;;;;;;21.05;12.93;;;;;;;11.23;69.99;96558.25;5044991;28;20062;-78
2022/11/11 10:11:48;;;;;;;24.75;16.15;;;;;;;11.30;68.92;96555.41;5061829;28;20202;-78
2022/11/11 10:14:15;;;;;;;25.10;13.77;;;;;;;11.35;69.53;96556.31;5043217;28;20578;-79
2022/11/11 10:17:10;;;;;;;22.05;14.75;;;;;;;11.37;69.17;96556.84;5053066;28;20498;-79
2022/11/11 10:20:09;;;;;;;20.35;12.98;;;;;;;11.26;69.46;96536.53;5040566;28;20050;-81
2022/11/11 10:22:39;;;;;;;20.48;13.32;;;;;;;10.78;68.46;96462.84;5020728;28;20044;-78
2022/11/11 10:25:10;;;;;;;21.13;12.90;;;;;;;11.39;68.73;96560.09;5043949;28;20043;-79
2022/11/11 10:27:39;;;;;;;;;;;;;;;11.33;68.58;96546.97;5067005;28;20081;-80
2022/11/11 10:30:20;;;;;;;22.50;13.45;;;;;;;11.29;69.07;96551.97;5050233;28;20856;-80
2022/11/11 10:33:09;;;;;;;20.98;14.10;;;;;;;11.12;69.56;96528.13;5050086;28;20183;-78
2022/11/11 10:35:36;;;;;;;30.55;13.55;;;;;;;11.19;69.88;96563.25;5033172;28;20041;-77
2022/11/11 10:38:22;;;;;;;23.40;14.30;;;;;;;10.38;70.28;96445.25;5047101;28;20037;-78
2022/11/11 10:40:49;;;;;;;21.67;13.35;;;;;;;11.10;69.98;96547.97;5054679;28;20142;-77
2022/11/11 10:43:25;;;;;;;28.67;15.77;;;;;;;11.13;70.43;96553.63;5038509;28;20036;-77
2022/11/11 10:46:06;;;;;;;23.83;13.75;;;;;;;10.94;70.15;96514.28;5068513;28;20032;-76
2022/11/11 10:48:52;;;;;;;25.50;14.90;;;;;;;10.79;69.37;96483.00;5043287;28;20183;-77
2022/11/11 10:51:18;;;;;;;19.70;11.98;;;;;;;11.15;68.90;96548.03;5039841;28;20464;-76
2022/11/11 10:53:57;;;;;;;22.58;13.50;;;;;;;10.57;69.17;96455.63;5035913;28;20206;-76
2022/11/11 10:56:26;;;;;;;24.27;12.75;;;;;;;10.90;67.48;96498.06;5054292;28;20113;-76
2022/11/11 10:59:04;;;;;;;19.33;11.77;;;;;;;10.64;67.40;96472.16;5051045;28;20043;-77
2022/11/11 11:01:35;;;;;;;23.25;13.68;;;;;;;10.28;67.65;96421.22;5063750;28;20044;-77
2022/11/11 11:04:05;;;;;;;;;;;;;;;11.06;67.48;96530.94;5034775;28;20652;-77
2022/11/11 11:06:34;;;;;;;22.38;11.75;;;;;;;11.12;66.68;96535.28;5058554;28;19924;-78
2022/11/11 11:09:21;;;;;;;20.00;11.80;;;;;;;11.13;66.94;96526.25;5057712;28;20035;-77
2022/11/11 11:11:58;;;;;;;21.85;13.02;;;;;;;11.22;66.44;96516.81;5045892;28;20056;-80
2022/11/11 11:14:29;;;;;;;19.48;11.95;;;;;;;11.11;65.97;96497.28;5056394;28;20044;-81
2022/11/11 11:16:59;;;;;;;21.75;11.40;;;;;;;10.84;65.65;96448.59;5051420;28;20120;-79
2022/11/11 11:19:26;;;;;;;24.50;13.35;;;;;;;11.18;65.33;96481.19;5025712;28;20036;-81
2022/11/11 11:21:56;;;;;;;21.88;13.07;;;;;;;11.25;65.03;96465.06;5059247;28;20044;-80
2022/11/11 11:24:23;;;;;;;20.70;11.73;;;;;;;11.62;64.54;96511.22;5037489;28;20044;-80
2022/11/11 11:27:00;;;;;;;18.52;11.18;;;;;;;10.92;62.86;96402.25;5049150;28;20103;-82
2022/11/11 11:29:32;;;;;;;15.32;9.35;;;;;;;11.68;62.78;96509.44;5039275;28;20062;-77
2022/11/11 11:32:17;;;;;;;19.90;11.23;;;;;;;11.71;62.67;96512.41;5032091;28;20044;-78
2022/11/11 11:34:54;;;;;;;19.08;10.13;;;;;;;11.73;62.54;96510.31;5024188;28;20562;-76
2022/11/11 11:37:24;;;;;;;17.13;9.70;;;;;;;11.78;61.82;96496.31;5038848;28;20044;-77
2022/11/11 11:40:06;;;;;;;15.70;9.67;;;;;;;11.53;61.35;96449.75;5029533;28;20055;-77
2022/11/11 11:42:31;;;;;;;16.58;10.13;;;;;;;11.97;61.30;96511.69;5046731;28;20566;-79
2022/11/11 11:45:16;;;;;;;16.00;9.85;;;;;;;12.05;60.85;96505.13;5048921;28;20063;-79
2022/11/11 11:47:56;;;;;;;19.20;8.73;;;;;;;12.08;60.16;96498.47;5025618;28;20039;-77
2022/11/11 11:50:50;;;;;;;14.38;9.70;;;;;;;12.05;60.27;96512.31;5048814;28;20148;-78
2022/11/11 11:53:29;;;;;;;16.02;9.77;;;;;;;12.08;60.45;96490.50;5034420;28;20127;-78
2022/11/11 11:56:33;;;;;;;15.05;8.43;;;;;;;11.99;60.30;96496.28;5041743;28;20450;-76
2022/11/11 11:59:01;;;;;;;16.02;9.45;;;;;;;11.94;60.33;96504.19;5056704;28;20048;-78
2022/11/11 12:01:34;;;;;;;17.38;9.48;;;;;;;11.53;60.28;96428.50;5059801;28;20039;-78
2022/11/11 12:04:10;;;;;;;20.20;9.95;;;;;;;11.93;60.76;96496.47;5061059;28;20050;-77
2022/11/11 12:06:49;;;;;;;16.02;10.25;;;;;;;11.98;60.59;96497.31;5056174;28;20048;-77
2022/11/11 12:09:22;;;;;;;16.77;9.07;;;;;;;12.03;60.56;96485.16;5056866;28;20120;-77
2022/11/11 12:11:59;;;;;;;17.15;10.13;;;;;;;12.12;60.17;96486.31;5036714;28;20058;-76
2022/11/11 12:14:52;;;;;;;15.80;8.55;;;;;;;12.13;60.21;96485.25;5054837;28;20491;-76
2022/11/11 12:17:58;;;;;;;15.18;9.48;;;;;;;11.99;59.86;96467.03;5062762;28;20909;-78
2022/11/11 12:20:27;;;;;;;13.77;9.27;;;;;;;11.97;59.73;96486.97;5002635;28;20079;-80
2022/11/11 12:23:07;;;;;;;16.02;9.23;;;;;;;11.95;59.79;96475.75;5033842;28;20048;-80
2022/11/11 12:26:01;;;;;;;12.50;8.48;;;;;;;12.01;59.67;96477.41;5028101;28;20046;-78
2022/11/11 12:28:41;;;;;;;15.30;8.70;;;;;;;11.57;60.10;96426.16;5051486;28;20438;-79
2022/11/11 12:31:13;;;;;;;19.27;9.75;;;;;;;11.95;60.15;96470.44;5065510;28;20543;-78
2022/11/11 12:33:49;;;;;;;17.50;8.63;;;;;;;11.50;59.19;96404.28;5037428;28;20036;-78
2022/11/11 12:36:35;;;;;;;16.00;9.23;;;;;;;11.91;59.48;96467.47;5052317;28;20156;-78
2022/11/11 12:39:38;;;;;;;17.85;8.65;;;;;;;11.90;59.30;96463.19;5059062;28;20028;-78
2022/11/11 12:42:22;;;;;;;14.55;8.65;;;;;;;11.95;59.49;96465.13;5066065;28;20048;-78
2022/11/11 12:45:04;;;;;;;14.65;9.07;;;;;;;11.97;59.73;96466.50;5046661;28;20614;-78
2022/11/11 12:47:36;;;;;;;17.10;8.93;;;;;;;11.99;60.07;96466.22;5055240;28;20107;-78
2022/11/11 12:50:15;;;;;;;13.90;8.32;;;;;;;11.70;60.13;96414.31;5065907;28;20697;-78
2022/11/11 12:52:50;;;;;;;17.35;9.35;;;;;;;12.00;60.71;96462.50;5047683;28;20569;-78